CW6122 Weather Reports


Display with metric or nautical units.
time (UTC)temp
F
wind
direction
speed
MPH
gust
MPH
rain 1hr
in
rain 24hr
in
rain mn
in
humidity
%
barometer
mb
20181115063835 29 9 11.0 17.0 0.00 0.00 0.00 66 1012.5
20181115063324 29 5 9.0 14.0 0.00 0.00 0.00 66 1012.5
20181115062832 29 360 7.0 14.0 0.00 0.00 0.00 67 1012.4
20181115062320 29 13 8.0 14.0 0.00 0.00 0.00 67 1012.4
20181115061826 29 340 7.0 13.0 0.00 0.00 0.00 67 1012.3
20181115061331 29 355 6.0 12.0 0.00 0.00 0.00 67 1012.3
20181115060821 29 26 5.0 10.0 0.00 0.00 0.00 67 1012.2
20181115060330 29 351 6.0 12.0 0.00 0.00 0.00 67 1012.1
20181115055828 29 344 7.0 12.0 0.00 0.00 0.00 68 1012.1
20181115055336 29 5 5.0 12.0 0.00 0.00 0.00 68 1012.1
20181115054824 29 350 8.0 12.0 0.00 0.00 0.00 67 1012.0
20181115054333 29 327 7.0 14.0 0.00 0.00 0.00 67 1011.9
20181115053816 30 5 7.0 11.0 0.00 0.00 0.00 66 1011.9
20181115053323 30 355 8.0 14.0 0.00 0.00 0.00 66 1011.9
20181115052831 30 5 8.0 14.0 0.00 0.00 0.00 66 1011.8
20181115052319 30 15 9.0 14.0 0.00 0.00 0.00 65 1011.7
20181115051826 30 360 10.0 14.0 0.00 0.00 0.00 65 1011.7
20181115051337 30 355 8.0 14.0 0.00 0.00 0.00 65 1011.7
20181115050335 30 345 9.0 15.0 0.00 0.00 0.00 65 1011.4
20181115045834 30 345 9.0 14.0 0.00 0.00 0.00 66 1011.4
20181115045323 30 348 7.0 13.0 0.00 0.00 0.00 66 1011.3
20181115044831 30 10 9.0 12.0 0.00 0.00 0.00 66 1011.2
20181115044316 30 14 9.0 12.0 0.00 0.00 0.00 66 1011.1
20181115043826 30 18 8.0 12.0 0.00 0.00 0.00 67 1011.0
20181115043334 30 16 8.0 12.0 0.00 0.00 0.00 67 1011.0
20181115042819 30 355 7.0 11.0 0.00 0.00 0.00 68 1010.9
20181115042325 30 31 8.0 11.0 0.00 0.00 0.00 68 1010.8
20181115041833 30 13 7.0 11.0 0.00 0.00 0.00 69 1010.7
20181115041320 30 15 8.0 11.0 0.00 0.00 0.00 69 1010.7
20181115040827 30 21 5.0 10.0 0.00 0.00 0.00 70 1010.6
20181115040337 29 24 4.0 9.0 0.00 0.00 0.00 72 1010.6
20181115035828 29 5 4.0 6.0 0.00 0.00 0.00 73 1010.5
20181115035317 29 28 3.0 5.0 0.00 0.00 0.00 77 1010.5
20181115034826 28 24 0.0 2.0 0.00 0.00 0.00 81 1010.4
20181115034315 28 63 0.0 0.0 0.00 0.00 0.00 80 1010.4
20181115033823 28 63 0.0 0.0 0.00 0.00 0.00 80 1010.3
20181115033332 27 63 0.0 0.0 0.00 0.00 0.00 80 1010.3
20181115032817 28 63 0.0 0.0 0.00 0.00 0.00 79 1010.2
20181115032323 28 63 0.0 0.0 0.00 0.00 0.00 80 1010.1
20181115023334 30 63 2.0 6.0 0.00 0.00 0.00 69 1009.3
20181115022821 30 66 2.0 6.0 0.00 0.00 0.00 68 1009.1
20181115022318 31 44 3.0 9.0 0.00 0.00 0.00 68 1009.1
20181115021820 31 34 4.0 9.0 0.00 0.00 0.00 67 1009.0
20181115021328 31 34 4.0 8.0 0.00 0.00 0.00 67 1009.0
20181115020831 31 12 4.0 8.0 0.00 0.00 0.00 67 1008.9
20181115020328 31 13 4.0 6.0 0.00 0.00 0.00 66 1008.9
20181115015839 32 355 4.0 6.0 0.00 0.00 0.00 66 1008.8
20181115015338 32 30 4.0 9.0 0.00 0.00 0.00 64 1008.7
20181115014821 32 9 4.0 9.0 0.00 0.00 0.00 64 1008.7
20181115014327 32 53 3.0 10.0 0.00 0.00 0.00 64 1008.6
20181115013820 33 5 5.0 10.0 0.00 0.00 0.00 63 1008.5
20181115013327 33 16 6.0 11.0 0.00 0.00 0.00 62 1008.5
20181115012833 33 355 7.0 11.0 0.00 0.00 0.00 62 1008.5
20181115012320 33 348 7.0 11.0 0.00 0.00 0.00 62 1008.4
20181115011822 33 5 7.0 13.0 0.00 0.00 0.00 62 1008.3
20181115011330 33 355 8.0 16.0 0.00 0.00 0.00 62 1008.2
20181115010816 33 5 8.0 16.0 0.00 0.00 0.00 62 1008.1
20181115010325 34 344 9.0 13.0 0.00 0.00 0.00 63 1008.0
20181115005831 34 10 9.0 15.0 0.00 0.00 0.00 64 1008.0
20181115005316 34 355 8.0 13.0 0.00 0.00 0.00 64 1007.9
20181115004821 33 342 10.0 13.0 0.00 0.00 0.00 65 1007.8
20181115004330 33 334 8.0 12.0 0.00 0.00 0.00 66 1007.8
20181115003819 33 348 6.0 11.0 0.00 0.00 0.00 67 1007.7
20181115003330 32 5 4.0 8.0 0.00 0.00 0.00 70 1007.7
20181115002834 31 56 1.0 3.0 0.00 0.00 0.00 76 1007.7
20181115002321 31 56 0.0 0.0 0.00 0.00 0.00 75 1007.7
20181115001828 31 56 0.0 1.0 0.00 0.00 0.00 75 1007.6
20181115001331 32 56 0.0 3.0 0.00 0.00 0.00 74 1007.5
20181115000819 32 57 1.0 3.0 0.00 0.00 0.00 73 1007.5
20181115000326 32 56 1.0 2.0 0.00 0.00 0.00 72 1007.5
20181114235320 33 56 1.0 5.0 0.00 0.00 0.00 71 1007.4
20181114234827 33 56 2.0 5.0 0.00 0.00 0.00 70 1007.4
20181114234334 34 37 2.0 5.0 0.00 0.00 0.00 67 1007.4
20181114233821 34 16 1.0 8.0 0.00 0.00 0.00 66 1007.3
20181114233325 35 52 3.0 9.0 0.00 0.00 0.00 61 1007.3
20181114232832 36 9 5.0 10.0 0.00 0.00 0.00 60 1007.2
20181114232326 36 15 6.0 10.0 0.00 0.00 0.00 59 1007.1
20181114231830 36 19 5.0 10.0 0.00 0.00 0.00 59 1007.1
20181114231319 35 24 5.0 8.0 0.00 0.00 0.00 61 1007.1
20181114230827 35 25 5.0 7.0 0.00 0.00 0.00 61 1007.0
20181114230315 35 20 6.0 9.0 0.00 0.00 0.00 61 1007.0
20181114225830 35 22 6.0 10.0 0.00 0.00 0.00 60 1006.9
20181114225324 35 22 5.0 12.0 0.00 0.00 0.00 60 1006.8
20181114224830 36 11 5.0 13.0 0.00 0.00 0.00 59 1006.7
20181114224317 36 360 8.0 16.0 0.00 0.00 0.00 58 1006.7
20181114223825 36 5 11.0 16.0 0.00 0.00 0.00 58 1006.7
20181114223332 36 10 11.0 16.0 0.00 0.00 0.00 59 1006.7
20181114222819 36 335 11.0 17.0 0.00 0.00 0.00 59 1006.7
20181114222335 36 355 10.0 17.0 0.00 0.00 0.00 59 1006.6
20181114221823 36 355 10.0 17.0 0.00 0.00 0.00 59 1006.5
20181114221331 36 360 13.0 17.0 0.00 0.00 0.00 59 1006.5
20181114220818 35 360 10.0 17.0 0.00 0.00 0.00 60 1006.4
20181114220327 35 347 11.0 20.0 0.00 0.00 0.00 59 1006.4
20181114215820 35 334 10.0 20.0 0.00 0.00 0.00 60 1006.4
20181114215334 35 340 12.0 18.0 0.00 0.00 0.00 60 1006.3
20181114214821 35 13 12.0 16.0 0.00 0.00 0.00 59 1006.3
20181114214331 35 15 12.0 16.0 0.00 0.00 0.00 60 1006.2
20181114213820 35 351 10.0 18.0 0.00 0.00 0.00 59 1006.2
20181114213327 35 5 11.0 18.0 0.00 0.00 0.00 60 1006.2
20181114212835 35 350 11.0 20.0 0.00 0.00 0.00 60 1006.1
20181114212324 34 355 13.0 20.0 0.00 0.00 0.00 60 1006.0
20181114211833 35 340 11.0 18.0 0.00 0.00 0.00 60 1006.0
20181114211319 34 355 12.0 18.0 0.00 0.00 0.00 61 1005.9
20181114210828 34 346 11.0 17.0 0.00 0.00 0.00 62 1005.9
20181114210334 34 5 11.0 17.0 0.00 0.00 0.00 62 1005.8
20181114205829 34 355 10.0 20.0 0.00 0.00 0.00 62 1005.8
20181114205334 34 344 13.0 20.0 0.00 0.00 0.00 62 1005.7
20181114204841 33 19 12.0 17.0 0.00 0.00 0.00 63 1005.7
20181114204327 33 343 13.0 19.0 0.00 0.00 0.00 63 1005.6
20181114203835 33 348 12.0 21.0 0.00 0.00 0.00 64 1005.5
20181114203323 33 349 14.0 21.0 0.00 0.00 0.00 63 1005.4
20181114202829 33 355 13.0 21.0 0.00 0.00 0.00 63 1005.4
20181114202335 33 5 13.0 21.0 0.00 0.00 0.00 64 1005.3
20181114201842 33 355 14.0 21.0 0.00 0.00 0.00 64 1005.3
20181114201318 33 348 15.0 21.0 0.00 0.00 0.00 64 1005.2
20181114200824 33 5 14.0 21.0 0.00 0.00 0.00 65 1005.1
20181114200330 33 355 13.0 18.0 0.00 0.00 0.00 64 1005.1
20181114195828 33 30 11.0 18.0 0.00 0.00 0.00 65 1005.0
20181114195335 33 5 14.0 20.0 0.00 0.00 0.00 64 1004.9
20181114194820 32 355 11.0 19.0 0.00 0.00 0.00 65 1004.8
20181114193831 32 355 12.0 18.0 0.00 0.00 0.00 65 1004.6
20181114193317 32 14 12.0 18.0 0.00 0.00 0.00 66 1004.6
20181114192819 32 348 14.0 18.0 0.00 0.00 0.00 66 1004.5
20181114192326 32 337 12.0 19.0 0.00 0.00 0.00 66 1004.4
20181114191833 32 5 12.0 19.0 0.00 0.00 0.00 65 1004.3
20181114191319 32 9 13.0 19.0 0.00 0.00 0.00 66 1004.2
20181114190818 32 330 11.0 17.0 0.00 0.00 0.00 66 1004.2
20181114190326 32 351 11.0 18.0 0.00 0.00 0.00 66 1004.1
20181114185822 31 345 11.0 19.0 0.00 0.00 0.00 66 1004.0
20181114185327 31 355 13.0 20.0 0.00 0.00 0.00 67 1004.0
20181114184815 31 9 13.0 20.0 0.00 0.00 0.00 67 1003.9
20181114184322 31 355 14.0 20.0 0.00 0.00 0.00 67 1003.8
20181114183830 31 319 13.0 20.0 0.00 0.00 0.00 67 1003.7
20181114183317 31 360 15.0 20.0 0.00 0.00 0.00 67 1003.7
20181114182826 31 15 12.0 20.0 0.00 0.00 0.00 67 1003.6
20181114182334 31 19 12.0 19.0 0.00 0.00 0.00 68 1003.5
20181114181823 31 351 14.0 19.0 0.00 0.00 0.00 68 1003.4
20181114181331 31 355 12.0 21.0 0.00 0.00 0.00 68 1003.3
20181114180822 31 349 13.0 21.0 0.00 0.00 0.00 68 1003.3
20181114180330 31 26 15.0 20.0 0.00 0.00 0.00 67 1003.2
20181114175824 31 14 11.0 20.0 0.00 0.00 0.00 68 1003.2
20181114175332 31 329 12.0 21.0 0.00 0.00 0.00 68 1003.2
20181114174821 31 34 15.0 22.0 0.00 0.00 0.00 68 1003.1
20181114174319 31 5 14.0 24.0 0.00 0.00 0.00 68 1003.0
20181114173827 31 344 15.0 24.0 0.00 0.00 0.00 68 1003.0
20181114173333 31 5 15.0 22.0 0.00 0.00 0.00 68 1002.9
20181114172823 31 355 14.0 20.0 0.00 0.00 0.00 68 1002.8
20181114172331 31 347 14.0 20.0 0.00 0.00 0.00 68 1002.8
20181114171840 31 343 13.0 22.0 0.00 0.00 0.00 68 1002.7
20181114171454 31 344 14.0 22.0 0.00 0.00 0.00 67 1002.6
20181114171327 31 344 14.0 22.0 0.00 0.00 0.00 67 1002.6
20181114170833 31 351 13.0 19.0 0.00 0.00 0.00 67 1002.6
20181114170320 31 355 12.0 22.0 0.00 0.00 0.00 67 1002.5
20181114165834 31 360 12.0 22.0 0.00 0.00 0.00 67 1002.5
20181114165321 31 12 12.0 20.0 0.00 0.00 0.00 67 1002.4
20181114164829 31 360 14.0 20.0 0.00 0.00 0.00 67 1002.4
20181114164335 31 5 12.0 20.0 0.00 0.00 0.00 67 1002.3
20181114163830 31 341 14.0 21.0 0.00 0.00 0.00 67 1002.3
20181114163317 31 5 13.0 18.0 0.00 0.00 0.00 67 1002.3
20181114162824 31 355 13.0 19.0 0.00 0.00 0.00 67 1002.2
20181114162332 31 344 12.0 19.0 0.00 0.00 0.00 67 1002.2
20181114161821 31 350 11.0 18.0 0.00 0.00 0.00 66 1002.2
20181114161328 31 24 11.0 18.0 0.00 0.00 0.00 66 1002.1
20181114160835 31 5 11.0 18.0 0.00 0.00 0.00 66 1002.2
20181114160323 31 360 12.0 18.0 0.00 0.00 0.00 66 1002.1
20181114155835 31 355 11.0 19.0 0.00 0.00 0.00 66 1002.0
20181114155324 31 11 12.0 19.0 0.00 0.00 0.00 66 1001.9
20181114154831 31 351 13.0 22.0 0.00 0.00 0.00 66 1001.8
20181114154319 31 350 11.0 21.0 0.00 0.00 0.00 65 1001.8
20181114153818 31 340 13.0 21.0 0.00 0.00 0.00 66 1001.7
20181114153325 31 350 13.0 19.0 0.00 0.00 0.00 66 1001.7
20181114152830 31 360 11.0 17.0 0.00 0.00 0.00 66 1001.7
20181114152318 31 5 11.0 19.0 0.00 0.00 0.00 66 1001.7
20181114151825 31 348 13.0 19.0 0.00 0.00 0.00 66 1001.6
20181114151334 31 21 13.0 19.0 0.00 0.00 0.00 65 1001.5
20181114150826 31 355 12.0 19.0 0.00 0.00 0.00 66 1001.4
20181114150334 31 24 11.0 19.0 0.00 0.00 0.00 66 1001.3
20181114145829 31 360 11.0 21.0 0.00 0.00 0.00 66 1001.3
20181114145317 31 340 14.0 21.0 0.00 0.00 0.00 65 1001.2
20181114144824 31 351 13.0 19.0 0.00 0.00 0.00 65 1001.2
20181114144327 31 347 14.0 22.0 0.00 0.00 0.00 65 1001.1
20181114143816 32 340 10.0 22.0 0.00 0.00 0.00 65 1001.1
20181114143325 32 343 12.0 20.0 0.00 0.00 0.00 65 1001.0
20181114142832 32 349 13.0 20.0 0.00 0.00 0.00 65 1001.0
20181114142319 32 340 11.0 21.0 0.00 0.00 0.00 65 1001.0
20181114141827 32 360 14.0 21.0 0.00 0.00 0.00 65 1000.9
20181114141335 32 355 12.0 18.0 0.00 0.00 0.00 66 1000.9
20181114140841 32 355 12.0 17.0 0.00 0.00 0.00 65 1000.7
20181114140327 32 342 12.0 19.0 0.00 0.00 0.00 65 1000.7
20181114135825 32 355 11.0 19.0 0.00 0.00 0.00 66 1000.7
20181114135334 32 355 12.0 19.0 0.00 0.00 0.00 65 1000.6
20181114134822 32 331 12.0 20.0 0.00 0.00 0.00 65 1000.6
20181114134326 32 360 13.0 18.0 0.00 0.00 0.00 65 1000.5
20181114133836 32 355 13.0 17.0 0.00 0.00 0.00 66 1000.5
20181114133324 32 336 11.0 18.0 0.00 0.00 0.00 66 1000.6
20181114132832 32 355 13.0 18.0 0.00 0.00 0.00 66 1000.5
20181114132319 32 346 10.0 18.0 0.00 0.00 0.00 66 1000.6
20181114131828 32 17 12.0 16.0 0.00 0.00 0.00 66 1000.5
20181114131333 32 350 10.0 20.0 0.00 0.00 0.00 66 1000.4
20181114130822 32 334 13.0 20.0 0.00 0.00 0.00 66 1000.3
20181114130321 32 21 14.0 20.0 0.00 0.00 0.00 66 1000.2
20181114125818 32 347 13.0 22.0 0.00 0.00 0.00 65 1000.2
20181114125323 32 350 15.0 22.0 0.00 0.00 0.00 65 1000.1
20181114124827 32 355 13.0 21.0 0.00 0.00 0.00 65 1000.0
20181114124335 32 5 12.0 19.0 0.00 0.00 0.00 65 1000.1
20181114123822 32 355 12.0 20.0 0.00 0.00 0.00 65 1000.0
20181114123330 32 355 13.0 20.0 0.00 0.00 0.00 65 999.9
20181114122816 33 347 15.0 20.0 0.00 0.00 0.00 65 999.8
20181114122329 32 360 12.0 19.0 0.00 0.00 0.00 65 999.7
20181114121818 32 348 14.0 18.0 0.00 0.00 0.00 65 999.8
20181114121324 32 342 12.0 17.0 0.00 0.00 0.00 66 999.7
20181114120832 32 323 11.0 18.0 0.00 0.00 0.00 65 999.7
20181114120318 32 348 14.0 19.0 0.00 0.00 0.00 65 999.6
20181114115836 32 340 14.0 19.0 0.00 0.00 0.00 66 999.5
20181114115317 32 16 13.0 20.0 0.00 0.00 0.00 66 999.4
20181114114825 32 328 13.0 20.0 0.00 0.00 0.00 66 999.5
20181114114333 32 335 13.0 18.0 0.00 0.00 0.00 66 999.4
20181114113820 32 14 13.0 19.0 0.00 0.00 0.00 66 999.4
20181114113325 33 350 11.0 19.0 0.00 0.00 0.00 65 999.4
20181114112830 33 350 13.0 19.0 0.00 0.00 0.00 65 999.3
20181114112334 33 355 13.0 18.0 0.00 0.00 0.00 65 999.4
20181114111821 33 326 13.0 19.0 0.00 0.00 0.00 65 999.3
20181114111330 33 5 11.0 17.0 0.00 0.00 0.00 66 999.2
20181114110819 32 320 9.0 15.0 0.00 0.00 0.00 66 999.2
20181114110327 32 11 10.0 17.0 0.00 0.00 0.00 66 999.3
20181114105843 32 345 11.0 17.0 0.00 0.00 0.00 67 999.2
20181114105329 32 334 10.0 17.0 0.00 0.00 0.00 67 999.1
20181114104817 32 360 12.0 17.0 0.00 0.00 0.00 67 999.0
20181114104325 32 345 11.0 16.0 0.00 0.00 0.00 67 999.0
20181114103833 32 355 11.0 15.0 0.00 0.00 0.00 67 999.0
20181114103322 32 349 11.0 15.0 0.00 0.00 0.00 67 999.0
20181114102829 32 15 10.0 16.0 0.00 0.00 0.00 68 998.9
20181114102324 32 9 11.0 16.0 0.00 0.00 0.00 68 998.9
20181114101832 32 355 11.0 15.0 0.00 0.00 0.00 68 998.8
20181114101318 32 5 12.0 15.0 0.00 0.00 0.00 68 998.7
20181114100826 32 10 10.0 15.0 0.00 0.00 0.00 68 998.6
20181114100334 32 346 11.0 15.0 0.00 0.00 0.00 68 998.5
20181114095831 33 17 10.0 15.0 0.00 0.00 0.00 68 998.5
20181114095339 33 342 11.0 14.0 0.00 0.00 0.00 68 998.4
20181114094830 33 355 11.0 15.0 0.00 0.00 0.00 68 998.5
20181114094334 33 355 10.0 16.0 0.00 0.00 0.00 68 998.4
20181114093821 33 9 12.0 16.0 0.00 0.00 0.00 69 998.3
20181114093327 33 355 10.0 17.0 0.00 0.00 0.00 69 998.3
20181114092833 33 338 11.0 18.0 0.00 0.00 0.00 69 998.3
20181114092340 33 5 13.0 17.0 0.00 0.00 0.00 69 998.2
20181114091832 33 355 12.0 17.0 0.00 0.00 0.00 69 998.1
20181114091320 33 5 12.0 17.0 0.00 0.00 0.00 69 998.1
20181114090823 33 5 11.0 17.0 0.00 0.00 0.00 69 998.0
20181114090330 33 355 12.0 17.0 0.00 0.00 0.00 69 998.0
20181114085836 33 5 12.0 17.0 0.00 0.00 0.00 69 997.9
20181114085322 33 355 10.0 15.0 0.00 0.00 0.00 69 997.9
20181114084820 33 5 11.0 15.0 0.00 0.00 0.00 69 997.8
20181114084325 33 355 7.0 12.0 0.00 0.00 0.00 69 997.8
20181114083834 33 22 7.0 13.0 0.00 0.00 0.00 69 997.8
20181114083321 33 22 7.0 13.0 0.00 0.00 0.00 69 997.8
20181114082827 34 5 10.0 14.0 0.00 0.00 0.00 68 997.7
20181114082337 33 12 11.0 14.0 0.00 0.00 0.00 69 997.6
20181114081828 33 9 7.0 15.0 0.00 0.00 0.00 69 997.6
20181114081316 33 21 9.0 15.0 0.00 0.00 0.00 69 997.5
20181114080820 33 17 9.0 17.0 0.00 0.00 0.00 69 997.4
20181114080327 34 342 10.0 17.0 0.00 0.00 0.00 69 997.3
20181114075825 34 5 12.0 17.0 0.00 0.00 0.00 69 997.2
20181114075331 34 355 12.0 16.0 0.00 0.00 0.00 69 997.2
20181114074835 34 355 11.0 16.0 0.00 0.00 0.00 69 997.1
20181114074322 34 343 10.0 15.0 0.00 0.00 0.00 69 997.0
20181114073830 34 360 11.0 15.0 0.00 0.00 0.00 69 996.9
20181114073336 34 349 11.0 16.0 0.00 0.00 0.00 69 996.9
20181114072824 34 10 12.0 16.0 0.00 0.00 0.00 69 997.0
20181114072330 34 355 10.0 18.0 0.00 0.00 0.00 68 996.9
20181114071817 34 15 12.0 18.0 0.00 0.00 0.00 68 996.9
20181114071324 34 5 10.0 15.0 0.00 0.00 0.00 68 996.7
20181114070825 34 350 10.0 15.0 0.00 0.00 0.00 68 996.8
20181114070330 35 5 8.0 14.0 0.00 0.00 0.00 68 996.8
20181114065829 35 348 8.0 14.0 0.00 0.00 0.00 68 996.6
20181114065319 35 355 7.0 15.0 0.00 0.00 0.00 68 996.7
20181114064827 35 9 10.0 15.0 0.00 0.00 0.00 68 996.5
20181114064316 34 355 10.0 16.0 0.00 0.00 0.00 69 996.5